Decoded Metar for LFLS (GRENOBLE in FRANCE) (IATA:GNB) | Meteo·Mobile Aviation Weather
aviador You're here:

LFLS Decoded Metar

GRENOBLE in FRANCE
Report Time2018-12-11 10:30:00
UTC Time2018-12-11 10:51:57
Flight Rules vfr VFR
Wind340° at 08 kt
W.Decomp.*RWY 27: 2.7 kt HW 7.5 kt RCW
W.Rank340° ranks 8
Current wind is below 340° avg. (8.1)
Visibility9999 m
Phenomena:N/A
Clouds:N/A
Expected CloudBase > 1,600 ft AGL from Temp-Dew spread
CeilingNone
Temp06°C (ISA -6)
Dew Point02°C (76% RH)
AAT1.5°C
QNH1023 hPa
Density Alt249 ft
Elevation1,266 ft
Report Wrong Elevation
Raw Report
LFLS 111030Z AUTO 34008KT CAVOK 06/02 Q1023 NOSIG=

Extra information for LFLS:More info

Metar Taf Metar & Taf Last 4 Metars F.Rules Stats Wind Profile Meteogram Temp Stats Airport Information Weather charts Add Link Nearby VenuesMetar ALERT Operation Metar Decoded Social comments